aviador You're here:

SKRG Decoded Metar

RIO NEGRO in COLOMBIA
Report Time2018-04-24 02:00:00
UTC Time2018-04-24 02:50:12
Flight Rules vfr VFR
WindVRB at 02 kt
Visibility9999 m
Phenomena:N/A
Clouds:Scattered 015 Hf
Scattered 200 Hf
Expected CloudBase > 400 ft AGL from Temp-Dew spread
CeilingNone
Temp17°C (ISA +16)
Dew Point16°C (94% RH)
QNH1026 hPa
Density Alt8,701 ft
Elevation7,020 ft
Report Wrong Elevation
Raw Report
SKRG 240200Z VRB02KT 9999 SCT015 SCT200 17/16 A3030=

Extra information for SKRG:More info

Metar Taf Metar & Taf Last 4 Metars F.Rules Stats Wind Profile Meteogram Temp Stats Airport Information Weather charts Add Link Nearby VenuesMetar ALERT Operation Metar Decoded Social comments